sensor_id;sensor_type;location;lat;lon;timestamp;temperature;humidity
13115;DHT22;6623;52.120;8.660;2022-10-31T00:01:15;14.10;90.20
13115;DHT22;6623;52.120;8.660;2022-10-31T00:03:41;13.40;90.10
13115;DHT22;6623;52.120;8.660;2022-10-31T00:06:09;14.00;90.30
13115;DHT22;6623;52.120;8.660;2022-10-31T00:08:34;13.40;90.30
13115;DHT22;6623;52.120;8.660;2022-10-31T00:11:00;14.10;90.40
13115;DHT22;6623;52.120;8.660;2022-10-31T00:13:26;14.40;90.50
13115;DHT22;6623;52.120;8.660;2022-10-31T00:15:52;14.00;90.40
13115;DHT22;6623;52.120;8.660;2022-10-31T00:18:20;13.40;90.30
13115;DHT22;6623;52.120;8.660;2022-10-31T00:20:45;13.30;90.30
13115;DHT22;6623;52.120;8.660;2022-10-31T00:23:11;13.30;90.30
13115;DHT22;6623;52.120;8.660;2022-10-31T00:25:37;13.60;90.40
13115;DHT22;6623;52.120;8.660;2022-10-31T00:28:03;13.80;90.40
13115;DHT22;6623;52.120;8.660;2022-10-31T00:30:29;13.30;90.30
13115;DHT22;6623;52.120;8.660;2022-10-31T00:32:55;13.20;90.30
13115;DHT22;6623;52.120;8.660;2022-10-31T00:35:20;14.60;90.60
13115;DHT22;6623;52.120;8.660;2022-10-31T00:37:46;13.20;90.20
13115;DHT22;6623;52.120;8.660;2022-10-31T00:40:11;13.80;90.30
13115;DHT22;6623;52.120;8.660;2022-10-31T00:42:37;14.00;90.40
13115;DHT22;6623;52.120;8.660;2022-10-31T00:45:03;14.50;90.50
13115;DHT22;6623;52.120;8.660;2022-10-31T00:47:29;13.10;90.10
13115;DHT22;6623;52.120;8.660;2022-10-31T00:49:54;14.40;90.40
13115;DHT22;6623;52.120;8.660;2022-10-31T00:52:20;13.20;90.10
13115;DHT22;6623;52.120;8.660;2022-10-31T00:54:45;14.30;90.40
13115;DHT22;6623;52.120;8.660;2022-10-31T00:57:11;12.80;90.10
13115;DHT22;6623;52.120;8.660;2022-10-31T00:59:36;13.60;90.30
13115;DHT22;6623;52.120;8.660;2022-10-31T01:02:02;13.60;90.30
13115;DHT22;6623;52.120;8.660;2022-10-31T01:04:27;12.90;90.20
13115;DHT22;6623;52.120;8.660;2022-10-31T01:06:53;13.70;90.40
13115;DHT22;6623;52.120;8.660;2022-10-31T01:09:18;14.10;90.40
13115;DHT22;6623;52.120;8.660;2022-10-31T01:11:44;12.90;90.10
13115;DHT22;6623;52.120;8.660;2022-10-31T01:14:10;14.40;90.50
13115;DHT22;6623;52.120;8.660;2022-10-31T01:16:35;13.80;90.30
13115;DHT22;6623;52.120;8.660;2022-10-31T01:19:01;13.80;90.30
13115;DHT22;6623;52.120;8.660;2022-10-31T01:21:27;13.80;90.30
13115;DHT22;6623;52.120;8.660;2022-10-31T01:23:53;12.90;90.10
13115;DHT22;6623;52.120;8.660;2022-10-31T01:26:22;14.30;90.40
13115;DHT22;6623;52.120;8.660;2022-10-31T01:31:13;12.60;90.00
13115;DHT22;6623;52.120;8.660;2022-10-31T01:33:39;13.70;90.30
13115;DHT22;6623;52.120;8.660;2022-10-31T01:36:15;14.10;90.40
13115;DHT22;6623;52.120;8.660;2022-10-31T01:38:41;12.70;90.00
13115;DHT22;6623;52.120;8.660;2022-10-31T01:41:07;13.00;90.10
13115;DHT22;6623;52.120;8.660;2022-10-31T01:43:53;12.60;90.00
13115;DHT22;6623;52.120;8.660;2022-10-31T01:46:27;12.60;90.00
13115;DHT22;6623;52.120;8.660;2022-10-31T01:48:55;12.60;90.00
13115;DHT22;6623;52.120;8.660;2022-10-31T01:51:22;12.60;90.10
13115;DHT22;6623;52.120;8.660;2022-10-31T01:53:51;13.80;90.40
13115;DHT22;6623;52.120;8.660;2022-10-31T01:56:19;12.50;90.00
13115;DHT22;6623;52.120;8.660;2022-10-31T01:58:45;13.70;90.40
13115;DHT22;6623;52.120;8.660;2022-10-31T02:01:11;13.50;90.40
13115;DHT22;6623;52.120;8.660;2022-10-31T02:03:37;12.10;90.00
13115;DHT22;6623;52.120;8.660;2022-10-31T02:06:03;12.90;90.20
13115;DHT22;6623;52.120;8.660;2022-10-31T02:08:32;12.50;90.10
13115;DHT22;6623;52.120;8.660;2022-10-31T02:10:58;12.90;90.20
13115;DHT22;6623;52.120;8.660;2022-10-31T02:13:25;12.90;90.20
13115;DHT22;6623;52.120;8.660;2022-10-31T02:15:52;13.10;90.30
13115;DHT22;6623;52.120;8.660;2022-10-31T02:18:17;11.90;90.00
13115;DHT22;6623;52.120;8.660;2022-10-31T02:23:33;12.40;90.20
13115;DHT22;6623;52.120;8.660;2022-10-31T02:36:05;13.50;90.60
13115;DHT22;6623;52.120;8.660;2022-10-31T02:38:48;12.30;90.30
13115;DHT22;6623;52.120;8.660;2022-10-31T02:46:24;12.30;90.40
13115;DHT22;6623;52.120;8.660;2022-10-31T02:48:53;12.30;90.40
13115;DHT22;6623;52.120;8.660;2022-10-31T02:51:19;12.70;90.60
13115;DHT22;6623;52.120;8.660;2022-10-31T02:53:45;12.40;90.50
13115;DHT22;6623;52.120;8.660;2022-10-31T02:56:12;12.70;90.60
13115;DHT22;6623;52.120;8.660;2022-10-31T02:58:58;13.10;90.60
13115;DHT22;6623;52.120;8.660;2022-10-31T03:06:35;12.30;90.50
13115;DHT22;6623;52.120;8.660;2022-10-31T03:11:51;12.30;90.70
13115;DHT22;6623;52.120;8.660;2022-10-31T03:14:20;12.30;90.70
13115;DHT22;6623;52.120;8.660;2022-10-31T03:16:46;12.50;90.80
13115;DHT22;6623;52.120;8.660;2022-10-31T03:19:17;12.50;90.90
13115;DHT22;6623;52.120;8.660;2022-10-31T03:24:09;11.40;90.60
13115;DHT22;6623;52.120;8.660;2022-10-31T03:26:35;12.40;90.90
13115;DHT22;6623;52.120;8.660;2022-10-31T03:29:05;12.70;91.00
13115;DHT22;6623;52.120;8.660;2022-10-31T03:31:33;12.40;90.90
13115;DHT22;6623;52.120;8.660;2022-10-31T03:33:59;12.50;90.90
13115;DHT22;6623;52.120;8.660;2022-10-31T03:36:26;12.90;90.90
13115;DHT22;6623;52.120;8.660;2022-10-31T03:38:52;12.50;90.70
13115;DHT22;6623;52.120;8.660;2022-10-31T03:41:19;13.10;90.70
13115;DHT22;6623;52.120;8.660;2022-10-31T03:43:57;11.60;90.20
13115;DHT22;6623;52.120;8.660;2022-10-31T03:46:25;12.40;90.30
13115;DHT22;6623;52.120;8.660;2022-10-31T03:48:53;13.00;90.40
13115;DHT22;6623;52.120;8.660;2022-10-31T03:51:26;12.60;90.30
13115;DHT22;6623;52.120;8.660;2022-10-31T03:54:41;12.20;90.20
13115;DHT22;6623;52.120;8.660;2022-10-31T03:56:55;12.20;90.20
13115;DHT22;6623;52.120;8.660;2022-10-31T03:59:26;12.20;90.20
13115;DHT22;6623;52.120;8.660;2022-10-31T04:01:55;12.20;90.20
13115;DHT22;6623;52.120;8.660;2022-10-31T04:04:22;12.10;90.10
13115;DHT22;6623;52.120;8.660;2022-10-31T04:06:47;13.30;90.50
13115;DHT22;6623;52.120;8.660;2022-10-31T04:09:14;11.80;90.10
13115;DHT22;6623;52.120;8.660;2022-10-31T04:11:42;12.40;90.30
13115;DHT22;6623;52.120;8.660;2022-10-31T04:14:09;12.10;90.20
13115;DHT22;6623;52.120;8.660;2022-10-31T04:16:36;13.40;90.50
13115;DHT22;6623;52.120;8.660;2022-10-31T04:19:05;12.00;90.20
13115;DHT22;6623;52.120;8.660;2022-10-31T04:21:31;12.00;90.20
13115;DHT22;6623;52.120;8.660;2022-10-31T04:23:56;12.00;90.30
13115;DHT22;6623;52.120;8.660;2022-10-31T04:26:22;13.30;90.50
13115;DHT22;6623;52.120;8.660;2022-10-31T04:28:50;12.70;90.40
13115;DHT22;6623;52.120;8.660;2022-10-31T04:31:16;12.00;90.30
13115;DHT22;6623;52.120;8.660;2022-10-31T04:33:41;13.20;90.60
13115;DHT22;6623;52.120;8.660;2022-10-31T04:36:07;12.60;90.40
13115;DHT22;6623;52.120;8.660;2022-10-31T04:38:33;11.90;90.30
13115;DHT22;6623;52.120;8.660;2022-10-31T04:40:58;12.00;90.30
13115;DHT22;6623;52.120;8.660;2022-10-31T04:43:24;12.20;90.40
13115;DHT22;6623;52.120;8.660;2022-10-31T04:45:49;11.80;90.30
13115;DHT22;6623;52.120;8.660;2022-10-31T04:48:15;12.20;90.50
13115;DHT22;6623;52.120;8.660;2022-10-31T04:50:40;12.20;90.40
13115;DHT22;6623;52.120;8.660;2022-10-31T04:53:07;11.20;90.10
13115;DHT22;6623;52.120;8.660;2022-10-31T04:55:32;12.50;90.40
13115;DHT22;6623;52.120;8.660;2022-10-31T04:57:58;11.80;90.20
13115;DHT22;6623;52.120;8.660;2022-10-31T05:00:24;13.20;90.90
13115;DHT22;6623;52.120;8.660;2022-10-31T05:02:56;11.90;90.30
13115;DHT22;6623;52.120;8.660;2022-10-31T05:05:22;11.70;90.20
13115;DHT22;6623;52.120;8.660;2022-10-31T05:07:49;11.70;90.20
13115;DHT22;6623;52.120;8.660;2022-10-31T05:10:16;13.40;90.70
13115;DHT22;6623;52.120;8.660;2022-10-31T05:12:46;11.80;90.30
13115;DHT22;6623;52.120;8.660;2022-10-31T05:15:13;11.70;90.20
13115;DHT22;6623;52.120;8.660;2022-10-31T05:17:41;11.60;90.20
13115;DHT22;6623;52.120;8.660;2022-10-31T05:20:07;11.80;90.30
13115;DHT22;6623;52.120;8.660;2022-10-31T05:22:32;11.60;90.20
13115;DHT22;6623;52.120;8.660;2022-10-31T05:24:58;13.00;90.60
13115;DHT22;6623;52.120;8.660;2022-10-31T05:27:23;12.20;90.40
13115;DHT22;6623;52.120;8.660;2022-10-31T05:29:55;12.60;90.60
13115;DHT22;6623;52.120;8.660;2022-10-31T05:32:21;11.60;90.30
13115;DHT22;6623;52.120;8.660;2022-10-31T05:34:46;12.10;90.40
13115;DHT22;6623;52.120;8.660;2022-10-31T05:37:12;12.30;90.50
13115;DHT22;6623;52.120;8.660;2022-10-31T05:39:37;11.50;90.40
13115;DHT22;6623;52.120;8.660;2022-10-31T05:42:03;11.50;90.40
13115;DHT22;6623;52.120;8.660;2022-10-31T05:44:28;11.40;90.40
13115;DHT22;6623;52.120;8.660;2022-10-31T05:46:54;11.50;90.40
13115;DHT22;6623;52.120;8.660;2022-10-31T05:49:19;12.50;90.60
13115;DHT22;6623;52.120;8.660;2022-10-31T05:51:45;11.40;90.30
13115;DHT22;6623;52.120;8.660;2022-10-31T05:54:10;11.50;90.40
13115;DHT22;6623;52.120;8.660;2022-10-31T05:56:36;11.40;90.40
13115;DHT22;6623;52.120;8.660;2022-10-31T05:59:01;11.40;90.40
13115;DHT22;6623;52.120;8.660;2022-10-31T06:01:27;12.70;90.70
13115;DHT22;6623;52.120;8.660;2022-10-31T06:03:52;11.30;90.40
13115;DHT22;6623;52.120;8.660;2022-10-31T06:06:18;11.50;90.40
13115;DHT22;6623;52.120;8.660;2022-10-31T06:08:43;12.20;90.60
13115;DHT22;6623;52.120;8.660;2022-10-31T06:11:09;11.30;90.40
13115;DHT22;6623;52.120;8.660;2022-10-31T06:13:34;11.50;90.50
13115;DHT22;6623;52.120;8.660;2022-10-31T06:16:00;11.10;90.40
13115;DHT22;6623;52.120;8.660;2022-10-31T06:18:25;11.60;90.50
13115;DHT22;6623;52.120;8.660;2022-10-31T06:20:51;11.70;90.50
13115;DHT22;6623;52.120;8.660;2022-10-31T06:23:17;11.60;90.50
13115;DHT22;6623;52.120;8.660;2022-10-31T06:25:42;12.60;90.80
13115;DHT22;6623;52.120;8.660;2022-10-31T06:28:08;12.00;90.70
13115;DHT22;6623;52.120;8.660;2022-10-31T06:30:33;11.20;90.50
13115;DHT22;6623;52.120;8.660;2022-10-31T06:33:05;11.20;90.60
13115;DHT22;6623;52.120;8.660;2022-10-31T06:35:30;11.20;90.50
13115;DHT22;6623;52.120;8.660;2022-10-31T06:37:56;11.30;90.50
13115;DHT22;6623;52.120;8.660;2022-10-31T06:40:22;11.90;90.80
13115;DHT22;6623;52.120;8.660;2022-10-31T06:42:55;11.20;90.60
13115;DHT22;6623;52.120;8.660;2022-10-31T06:45:21;11.20;90.90
13115;DHT22;6623;52.120;8.660;2022-10-31T06:47:50;12.40;91.00
13115;DHT22;6623;52.120;8.660;2022-10-31T06:50:15;11.20;90.70
13115;DHT22;6623;52.120;8.660;2022-10-31T06:52:41;11.20;90.70
13115;DHT22;6623;52.120;8.660;2022-10-31T06:55:07;11.20;90.80
13115;DHT22;6623;52.120;8.660;2022-10-31T06:57:32;11.20;90.80
13115;DHT22;6623;52.120;8.660;2022-10-31T06:59:58;11.20;90.90
13115;DHT22;6623;52.120;8.660;2022-10-31T07:02:26;11.20;90.90
13115;DHT22;6623;52.120;8.660;2022-10-31T07:04:52;12.00;91.20
13115;DHT22;6623;52.120;8.660;2022-10-31T07:07:17;11.20;91.10
13115;DHT22;6623;52.120;8.660;2022-10-31T07:09:43;11.30;91.10
13115;DHT22;6623;52.120;8.660;2022-10-31T07:12:08;11.50;91.20
13115;DHT22;6623;52.120;8.660;2022-10-31T07:14:34;12.30;91.50
13115;DHT22;6623;52.120;8.660;2022-10-31T07:16:59;12.80;91.60
13115;DHT22;6623;52.120;8.660;2022-10-31T07:19:25;11.40;91.20
13115;DHT22;6623;52.120;8.660;2022-10-31T07:21:50;11.70;91.30
13115;DHT22;6623;52.120;8.660;2022-10-31T07:24:16;12.20;91.50
13115;DHT22;6623;52.120;8.660;2022-10-31T07:26:41;11.40;91.40
13115;DHT22;6623;52.120;8.660;2022-10-31T07:29:07;11.60;91.40
13115;DHT22;6623;52.120;8.660;2022-10-31T07:31:33;12.70;91.70
13115;DHT22;6623;52.120;8.660;2022-10-31T07:33:58;11.50;91.40
13115;DHT22;6623;52.120;8.660;2022-10-31T07:36:24;12.10;91.60
13115;DHT22;6623;52.120;8.660;2022-10-31T07:38:49;11.40;91.40
13115;DHT22;6623;52.120;8.660;2022-10-31T07:41:15;12.60;91.70
13115;DHT22;6623;52.120;8.660;2022-10-31T07:43:40;11.20;91.30
13115;DHT22;6623;52.120;8.660;2022-10-31T07:46:06;12.50;91.80
13115;DHT22;6623;52.120;8.660;2022-10-31T07:48:31;11.60;91.60
13115;DHT22;6623;52.120;8.660;2022-10-31T07:50:57;12.10;91.90
13115;DHT22;6623;52.120;8.660;2022-10-31T07:53:22;11.60;91.80
13115;DHT22;6623;52.120;8.660;2022-10-31T07:55:48;11.70;92.00
13115;DHT22;6623;52.120;8.660;2022-10-31T07:58:14;12.00;92.30
13115;DHT22;6623;52.120;8.660;2022-10-31T08:00:40;12.20;92.00
13115;DHT22;6623;52.120;8.660;2022-10-31T08:03:07;12.60;92.10
13115;DHT22;6623;52.120;8.660;2022-10-31T08:05:33;12.10;92.00
13115;DHT22;6623;52.120;8.660;2022-10-31T08:07:59;13.10;92.20
13115;DHT22;6623;52.120;8.660;2022-10-31T08:10:25;12.00;91.90
13115;DHT22;6623;52.120;8.660;2022-10-31T08:12:55;12.00;91.70
13115;DHT22;6623;52.120;8.660;2022-10-31T08:15:21;12.20;91.90
13115;DHT22;6623;52.120;8.660;2022-10-31T08:17:47;12.30;92.00
13115;DHT22;6623;52.120;8.660;2022-10-31T08:20:12;13.00;92.20
13115;DHT22;6623;52.120;8.660;2022-10-31T08:22:38;12.20;92.00
13115;DHT22;6623;52.120;8.660;2022-10-31T08:25:04;12.30;92.00
13115;DHT22;6623;52.120;8.660;2022-10-31T08:27:30;12.30;92.00
13115;DHT22;6623;52.120;8.660;2022-10-31T08:29:55;10.50;91.40
13115;DHT22;6623;52.120;8.660;2022-10-31T08:32:21;13.10;92.00
13115;DHT22;6623;52.120;8.660;2022-10-31T08:34:46;13.10;92.00
13115;DHT22;6623;52.120;8.660;2022-10-31T08:37:12;12.90;91.80
13115;DHT22;6623;52.120;8.660;2022-10-31T08:39:37;13.20;91.90
13115;DHT22;6623;52.120;8.660;2022-10-31T08:42:03;13.10;91.80
13115;DHT22;6623;52.120;8.660;2022-10-31T08:44:28;13.00;91.70
13115;DHT22;6623;52.120;8.660;2022-10-31T08:46:54;12.50;91.60
13115;DHT22;6623;52.120;8.660;2022-10-31T08:49:19;14.10;92.00
13115;DHT22;6623;52.120;8.660;2022-10-31T08:51:48;13.10;91.60
13115;DHT22;6623;52.120;8.660;2022-10-31T08:54:13;13.40;91.60
13115;DHT22;6623;52.120;8.660;2022-10-31T08:56:39;13.10;91.50
13115;DHT22;6623;52.120;8.660;2022-10-31T08:59:04;13.10;91.50
13115;DHT22;6623;52.120;8.660;2022-10-31T09:01:30;13.90;91.70
13115;DHT22;6623;52.120;8.660;2022-10-31T09:03:55;12.90;91.50
13115;DHT22;6623;52.120;8.660;2022-10-31T09:06:21;13.20;91.60
13115;DHT22;6623;52.120;8.660;2022-10-31T09:08:46;12.60;91.50
13115;DHT22;6623;52.120;8.660;2022-10-31T09:11:12;13.50;91.70
13115;DHT22;6623;52.120;8.660;2022-10-31T09:13:37;12.20;91.30
13115;DHT22;6623;52.120;8.660;2022-10-31T09:16:03;14.20;91.90
13115;DHT22;6623;52.120;8.660;2022-10-31T09:18:29;12.70;91.90
13115;DHT22;6623;52.120;8.660;2022-10-31T09:20:56;13.70;91.80
13115;DHT22;6623;52.120;8.660;2022-10-31T09:23:22;14.10;91.90
13115;DHT22;6623;52.120;8.660;2022-10-31T09:25:48;12.90;91.60
13115;DHT22;6623;52.120;8.660;2022-10-31T09:28:15;12.70;91.60
13115;DHT22;6623;52.120;8.660;2022-10-31T09:30:41;12.70;91.60
13115;DHT22;6623;52.120;8.660;2022-10-31T09:33:10;13.40;91.90
13115;DHT22;6623;52.120;8.660;2022-10-31T09:35:37;14.30;92.00
13115;DHT22;6623;52.120;8.660;2022-10-31T09:38:03;13.30;91.70
13115;DHT22;6623;52.120;8.660;2022-10-31T09:40:36;14.00;91.90
13115;DHT22;6623;52.120;8.660;2022-10-31T09:43:12;12.80;91.70
13115;DHT22;6623;52.120;8.660;2022-10-31T09:45:41;12.90;91.70
13115;DHT22;6623;52.120;8.660;2022-10-31T09:48:14;12.90;91.90
13115;DHT22;6623;52.120;8.660;2022-10-31T09:50:45;12.90;91.90
13115;DHT22;6623;52.120;8.660;2022-10-31T09:55:47;12.90;92.00
13115;DHT22;6623;52.120;8.660;2022-10-31T09:58:15;13.80;92.30
13115;DHT22;6623;52.120;8.660;2022-10-31T10:00:42;13.00;92.10
13115;DHT22;6623;52.120;8.660;2022-10-31T10:03:25;13.20;92.20
13115;DHT22;6623;52.120;8.660;2022-10-31T10:05:53;13.10;92.30
13115;DHT22;6623;52.120;8.660;2022-10-31T10:08:25;14.50;92.70
13115;DHT22;6623;52.120;8.660;2022-10-31T10:10:57;14.50;92.70
13115;DHT22;6623;52.120;8.660;2022-10-31T10:26:51;13.30;92.60
13115;DHT22;6623;52.120;8.660;2022-10-31T10:32:09;13.40;92.60
13115;DHT22;6623;52.120;8.660;2022-10-31T10:34:38;13.50;92.60
13115;DHT22;6623;52.120;8.660;2022-10-31T10:37:09;13.50;92.60
13115;DHT22;6623;52.120;8.660;2022-10-31T10:39:40;14.60;92.80
13115;DHT22;6623;52.120;8.660;2022-10-31T10:42:13;14.60;92.70
13115;DHT22;6623;52.120;8.660;2022-10-31T10:44:57;13.70;92.40
13115;DHT22;6623;52.120;8.660;2022-10-31T10:47:42;14.20;92.30
13115;DHT22;6623;52.120;8.660;2022-10-31T10:50:14;13.80;92.10
13115;DHT22;6623;52.120;8.660;2022-10-31T10:52:44;13.90;92.10
13115;DHT22;6623;52.120;8.660;2022-10-31T10:55:17;13.90;91.80
13115;DHT22;6623;52.120;8.660;2022-10-31T11:00:23;14.00;91.80
13115;DHT22;6623;52.120;8.660;2022-10-31T11:02:49;14.00;91.90
13115;DHT22;6623;52.120;8.660;2022-10-31T11:05:25;15.40;92.20
13115;DHT22;6623;52.120;8.660;2022-10-31T11:07:51;14.80;92.00
13115;DHT22;6623;52.120;8.660;2022-10-31T11:10:17;14.40;91.70
13115;DHT22;6623;52.120;8.660;2022-10-31T11:12:44;14.30;91.20
13115;DHT22;6623;52.120;8.660;2022-10-31T11:15:18;15.40;91.00
13115;DHT22;6623;52.120;8.660;2022-10-31T11:17:46;14.40;90.50
13115;DHT22;6623;52.120;8.660;2022-10-31T11:22:38;14.70;90.00
13115;DHT22;6623;52.120;8.660;2022-10-31T11:28:01;14.70;88.50
13115;DHT22;6623;52.120;8.660;2022-10-31T11:30:27;14.70;88.60
13115;DHT22;6623;52.120;8.660;2022-10-31T11:32:53;14.90;87.80
13115;DHT22;6623;52.120;8.660;2022-10-31T11:35:19;15.10;88.40
13115;DHT22;6623;52.120;8.660;2022-10-31T11:37:47;14.90;87.30
13115;DHT22;6623;52.120;8.660;2022-10-31T11:40:17;14.90;87.30
13115;DHT22;6623;52.120;8.660;2022-10-31T11:42:43;14.90;87.40
13115;DHT22;6623;52.120;8.660;2022-10-31T11:45:27;15.00;86.30
13115;DHT22;6623;52.120;8.660;2022-10-31T11:47:53;15.00;86.00
13115;DHT22;6623;52.120;8.660;2022-10-31T11:50:32;15.30;86.90
13115;DHT22;6623;52.120;8.660;2022-10-31T11:52:59;15.10;87.00
13115;DHT22;6623;52.120;8.660;2022-10-31T11:57:57;15.10;86.50
13115;DHT22;6623;52.120;8.660;2022-10-31T12:03:18;15.20;86.20
13115;DHT22;6623;52.120;8.660;2022-10-31T12:05:40;15.20;86.20
13115;DHT22;6623;52.120;8.660;2022-10-31T12:08:08;15.70;86.70
13115;DHT22;6623;52.120;8.660;2022-10-31T12:10:37;16.30;86.80
13115;DHT22;6623;52.120;8.660;2022-10-31T12:13:16;16.30;87.00
13115;DHT22;6623;52.120;8.660;2022-10-31T12:15:45;15.10;86.50
13115;DHT22;6623;52.120;8.660;2022-10-31T12:21:04;15.20;86.10
13115;DHT22;6623;52.120;8.660;2022-10-31T12:36:23;15.40;85.40
13115;DHT22;6623;52.120;8.660;2022-10-31T12:43:58;15.90;85.00
13115;DHT22;6623;52.120;8.660;2022-10-31T12:51:53;15.60;84.00
13115;DHT22;6623;52.120;8.660;2022-10-31T12:54:30;15.60;84.00
13115;DHT22;6623;52.120;8.660;2022-10-31T12:59:40;15.70;84.10
13115;DHT22;6623;52.120;8.660;2022-10-31T13:04:57;15.70;84.50
13115;DHT22;6623;52.120;8.660;2022-10-31T13:07:29;15.70;84.40
13115;DHT22;6623;52.120;8.660;2022-10-31T13:10:03;15.70;84.20
13115;DHT22;6623;52.120;8.660;2022-10-31T13:12:29;15.70;83.70
13115;DHT22;6623;52.120;8.660;2022-10-31T13:15:00;16.30;84.00
13115;DHT22;6623;52.120;8.660;2022-10-31T13:17:31;15.70;83.40
13115;DHT22;6623;52.120;8.660;2022-10-31T13:20:03;15.90;83.70
13115;DHT22;6623;52.120;8.660;2022-10-31T13:22:31;15.80;83.90
13115;DHT22;6623;52.120;8.660;2022-10-31T13:25:21;16.30;84.50
13115;DHT22;6623;52.120;8.660;2022-10-31T13:28:05;15.80;84.00
13115;DHT22;6623;52.120;8.660;2022-10-31T13:30:37;15.80;83.90
13115;DHT22;6623;52.120;8.660;2022-10-31T13:33:06;15.80;83.90
13115;DHT22;6623;52.120;8.660;2022-10-31T13:38:27;15.90;84.10
13115;DHT22;6623;52.120;8.660;2022-10-31T13:41:04;15.90;84.40
13115;DHT22;6623;52.120;8.660;2022-10-31T13:46:25;16.00;84.60
13115;DHT22;6623;52.120;8.660;2022-10-31T13:48:51;16.00;84.50
13115;DHT22;6623;52.120;8.660;2022-10-31T13:51:24;16.00;84.60
13115;DHT22;6623;52.120;8.660;2022-10-31T13:56:16;17.10;85.20
13115;DHT22;6623;52.120;8.660;2022-10-31T13:58:59;16.60;84.90
13115;DHT22;6623;52.120;8.660;2022-10-31T14:01:25;16.10;84.70
13115;DHT22;6623;52.120;8.660;2022-10-31T14:06:36;16.00;84.90
13115;DHT22;6623;52.120;8.660;2022-10-31T14:09:02;16.00;85.00
13115;DHT22;6623;52.120;8.660;2022-10-31T14:11:28;16.20;85.40
13115;DHT22;6623;52.120;8.660;2022-10-31T14:13:55;16.20;85.60
13115;DHT22;6623;52.120;8.660;2022-10-31T14:16:40;16.10;85.70
13115;DHT22;6623;52.120;8.660;2022-10-31T14:19:08;16.00;85.80
13115;DHT22;6623;52.120;8.660;2022-10-31T14:21:43;16.00;86.10
13115;DHT22;6623;52.120;8.660;2022-10-31T14:24:29;16.00;86.10
13115;DHT22;6623;52.120;8.660;2022-10-31T14:27:29;16.00;86.20
13115;DHT22;6623;52.120;8.660;2022-10-31T14:29:49;15.90;86.30
13115;DHT22;6623;52.120;8.660;2022-10-31T14:32:21;15.90;86.70
13115;DHT22;6623;52.120;8.660;2022-10-31T14:34:52;15.90;86.90
13115;DHT22;6623;52.120;8.660;2022-10-31T14:40:14;15.80;87.10
13115;DHT22;6623;52.120;8.660;2022-10-31T14:45:32;15.80;87.30
13115;DHT22;6623;52.120;8.660;2022-10-31T14:48:12;15.80;87.30
13115;DHT22;6623;52.120;8.660;2022-10-31T14:50:48;15.80;87.40
13115;DHT22;6623;52.120;8.660;2022-10-31T14:53:18;15.80;87.50
13115;DHT22;6623;52.120;8.660;2022-10-31T14:55:46;16.20;87.80
13115;DHT22;6623;52.120;8.660;2022-10-31T14:58:13;17.00;88.30
13115;DHT22;6623;52.120;8.660;2022-10-31T15:00:41;16.50;88.10
13115;DHT22;6623;52.120;8.660;2022-10-31T15:03:12;16.40;88.30
13115;DHT22;6623;52.120;8.660;2022-10-31T15:05:50;15.80;87.90
13115;DHT22;6623;52.120;8.660;2022-10-31T15:08:29;15.70;87.80
13115;DHT22;6623;52.120;8.660;2022-10-31T15:10:55;15.70;87.80
13115;DHT22;6623;52.120;8.660;2022-10-31T15:13:21;16.80;88.50
13115;DHT22;6623;52.120;8.660;2022-10-31T15:15:47;16.80;88.50
13115;DHT22;6623;52.120;8.660;2022-10-31T15:18:16;15.70;88.00
13115;DHT22;6623;52.120;8.660;2022-10-31T15:20:43;15.70;88.00
13115;DHT22;6623;52.120;8.660;2022-10-31T15:23:10;16.50;88.50
13115;DHT22;6623;52.120;8.660;2022-10-31T15:25:36;15.60;88.10
13115;DHT22;6623;52.120;8.660;2022-10-31T15:28:11;16.80;88.90
13115;DHT22;6623;52.120;8.660;2022-10-31T15:30:37;15.60;88.20
13115;DHT22;6623;52.120;8.660;2022-10-31T15:33:14;15.80;88.40
13115;DHT22;6623;52.120;8.660;2022-10-31T15:35:40;16.60;88.90
13115;DHT22;6623;52.120;8.660;2022-10-31T15:38:06;16.80;89.20
13115;DHT22;6623;52.120;8.660;2022-10-31T15:40:32;15.90;88.70
13115;DHT22;6623;52.120;8.660;2022-10-31T15:42:59;15.70;88.70
13115;DHT22;6623;52.120;8.660;2022-10-31T15:45:27;16.20;89.00
13115;DHT22;6623;52.120;8.660;2022-10-31T15:50:19;16.50;89.30
13115;DHT22;6623;52.120;8.660;2022-10-31T15:52:46;15.60;88.90
13115;DHT22;6623;52.120;8.660;2022-10-31T15:55:20;15.50;88.90
13115;DHT22;6623;52.120;8.660;2022-10-31T15:57:47;15.50;88.80
13115;DHT22;6623;52.120;8.660;2022-10-31T16:00:47;15.50;89.00
13115;DHT22;6623;52.120;8.660;2022-10-31T16:10:59;15.50;88.80
13115;DHT22;6623;52.120;8.660;2022-10-31T16:13:29;15.40;88.70
13115;DHT22;6623;52.120;8.660;2022-10-31T16:16:00;15.50;88.70
13115;DHT22;6623;52.120;8.660;2022-10-31T16:18:26;15.50;88.60
13115;DHT22;6623;52.120;8.660;2022-10-31T16:20:53;16.80;89.30
13115;DHT22;6623;52.120;8.660;2022-10-31T16:23:21;16.40;89.10
13115;DHT22;6623;52.120;8.660;2022-10-31T16:25:47;15.70;88.60
13115;DHT22;6623;52.120;8.660;2022-10-31T16:28:20;15.40;88.40
13115;DHT22;6623;52.120;8.660;2022-10-31T16:30:56;15.40;88.30
13115;DHT22;6623;52.120;8.660;2022-10-31T16:35:47;15.30;88.40
13115;DHT22;6623;52.120;8.660;2022-10-31T16:38:13;16.50;89.20
13115;DHT22;6623;52.120;8.660;2022-10-31T16:40:39;15.20;88.70
13115;DHT22;6623;52.120;8.660;2022-10-31T16:43:04;16.40;89.40
13115;DHT22;6623;52.120;8.660;2022-10-31T16:45:30;16.10;89.30
13115;DHT22;6623;52.120;8.660;2022-10-31T16:48:04;15.40;88.90
13115;DHT22;6623;52.120;8.660;2022-10-31T16:50:30;15.20;88.90
13115;DHT22;6623;52.120;8.660;2022-10-31T16:52:55;15.20;88.90
13115;DHT22;6623;52.120;8.660;2022-10-31T16:55:21;15.40;89.10
13115;DHT22;6623;52.120;8.660;2022-10-31T16:57:50;15.20;89.00
13115;DHT22;6623;52.120;8.660;2022-10-31T17:00:17;15.20;89.00
13115;DHT22;6623;52.120;8.660;2022-10-31T17:02:44;15.10;89.10
13115;DHT22;6623;52.120;8.660;2022-10-31T17:05:13;15.10;89.20
13115;DHT22;6623;52.120;8.660;2022-10-31T17:07:40;15.10;89.30
13115;DHT22;6623;52.120;8.660;2022-10-31T17:10:05;15.40;89.50
13115;DHT22;6623;52.120;8.660;2022-10-31T17:12:31;15.10;89.30
13115;DHT22;6623;52.120;8.660;2022-10-31T17:14:57;15.70;89.60
13115;DHT22;6623;52.120;8.660;2022-10-31T17:17:22;15.70;89.60
13115;DHT22;6623;52.120;8.660;2022-10-31T17:19:48;16.40;89.90
13115;DHT22;6623;52.120;8.660;2022-10-31T17:22:13;15.70;89.70
13115;DHT22;6623;52.120;8.660;2022-10-31T17:24:39;15.40;89.50
13115;DHT22;6623;52.120;8.660;2022-10-31T17:27:04;15.90;89.70
13115;DHT22;6623;52.120;8.660;2022-10-31T17:29:30;15.40;89.50
13115;DHT22;6623;52.120;8.660;2022-10-31T17:31:56;16.10;90.00
13115;DHT22;6623;52.120;8.660;2022-10-31T17:34:22;16.30;90.00
13115;DHT22;6623;52.120;8.660;2022-10-31T17:36:51;15.00;89.40
13115;DHT22;6623;52.120;8.660;2022-10-31T17:39:17;15.00;89.30
13115;DHT22;6623;52.120;8.660;2022-10-31T17:41:42;15.00;89.30
13115;DHT22;6623;52.120;8.660;2022-10-31T17:44:11;15.20;89.50
13115;DHT22;6623;52.120;8.660;2022-10-31T17:46:37;15.00;89.40
13115;DHT22;6623;52.120;8.660;2022-10-31T17:49:03;15.30;89.70
13115;DHT22;6623;52.120;8.660;2022-10-31T17:51:33;15.00;89.50
13115;DHT22;6623;52.120;8.660;2022-10-31T17:53:59;14.90;89.40